Time;durP1;ratioP1;P1;durP2;ratioP2;P2;SDS_P1;SDS_P2;PMS_P1;PMS_P2;Temp;Humidity;BMP_temperature;BMP_pressure;BME280_temperature;BME280_humidity;BME280_pressure;Samples;Min_cycle;Max_cycle;Signal;HPM_P1;HPM_P2
2022/01/06 00:00:00;;;;;;;20.58;4.82;;;4.10;99.90;;;;;;5035685;28;20033;-84
2022/01/06 00:02:26;;;;;;;13.45;3.53;;;4.10;99.90;;;;;;5035888;28;20052;-84
2022/01/06 00:04:52;;;;;;;16.52;4.82;;;4.00;99.90;;;;;;5035394;28;20021;-84
2022/01/06 00:07:17;;;;;;;15.68;3.95;;;4.00;99.90;;;;;;5035331;28;20045;-85
2022/01/06 00:09:43;;;;;;;14.77;3.97;;;4.10;99.90;;;;;;5017648;28;20104;-84
2022/01/06 00:12:14;;;;;;;12.32;3.90;;;4.10;99.90;;;;;;5017693;28;20036;-84
2022/01/06 00:25:30;;;;;;;13.32;3.95;;;4.10;99.90;;;;;;5035745;28;20026;-84
2022/01/06 00:27:56;;;;;;;7.97;3.25;;;4.10;99.90;;;;;;5017416;28;20032;-84
2022/01/06 00:30:21;;;;;;;13.35;3.55;;;4.20;99.90;;;;;;5017292;28;20029;-84
2022/01/06 00:32:47;;;;;;;9.27;3.30;;;4.10;99.90;;;;;;5017291;28;20037;-84
2022/01/06 00:35:13;;;;;;;8.35;2.65;;;4.20;99.90;;;;;;5017223;28;20036;-84
2022/01/06 00:37:39;;;;;;;8.27;3.17;;;4.30;99.90;;;;;;5017152;28;20034;-84
2022/01/06 00:40:05;;;;;;;9.15;2.70;;;4.10;99.90;;;;;;5016058;28;20398;-84
2022/01/06 00:42:31;;;;;;;10.00;2.65;;;4.10;99.90;;;;;;5035063;28;20048;-84
2022/01/06 00:44:57;;;;;;;7.25;3.33;;;4.10;99.90;;;;;;5016897;28;20025;-84
2022/01/06 00:47:23;;;;;;;12.23;2.40;;;4.10;99.90;;;;;;5017161;28;20021;-84
2022/01/06 00:49:49;;;;;;;9.27;2.60;;;4.20;99.90;;;;;;5017162;28;20021;-83
2022/01/06 00:52:14;;;;;;;10.13;2.83;;;4.10;99.90;;;;;;5034541;28;20460;-84
2022/01/06 00:54:40;;;;;;;8.65;2.35;;;4.10;99.90;;;;;;5017341;28;20088;-84
2022/01/06 00:57:06;;;;;;;7.72;3.00;;;4.10;99.90;;;;;;5034500;28;20028;-84
2022/01/06 00:59:32;;;;;;;6.72;2.58;;;4.00;99.90;;;;;;5034500;28;20035;-84
2022/01/06 01:01:57;;;;;;;11.07;3.10;;;4.10;99.90;;;;;;5016857;28;20064;-84
2022/01/06 01:04:23;;;;;;;6.63;2.67;;;4.20;99.90;;;;;;5017000;28;20029;-84
2022/01/06 01:06:49;;;;;;;12.15;2.85;;;4.20;99.90;;;;;;5034121;28;20048;-84
2022/01/06 01:09:15;;;;;;;7.70;2.38;;;4.00;99.90;;;;;;5016556;28;20018;-84
2022/01/06 01:11:41;;;;;;;7.05;2.45;;;4.10;99.90;;;;;;5016645;28;20025;-84
2022/01/06 01:14:26;;;;;;;6.85;2.70;;;4.10;99.90;;;;;;5034342;28;20026;-84
2022/01/06 01:16:57;;;;;;;12.13;3.10;;;4.00;99.90;;;;;;5016448;28;20477;-84
2022/01/06 01:19:25;;;;;;;12.00;2.80;;;4.00;99.90;;;;;;5016504;28;20051;-84
2022/01/06 01:21:52;;;;;;;11.75;2.72;;;4.00;99.90;;;;;;5034106;28;20028;-84
2022/01/06 01:24:18;;;;;;;8.45;2.83;;;4.00;99.90;;;;;;5016336;28;20504;-84
2022/01/06 01:26:44;;;;;;;12.35;3.15;;;3.90;99.90;;;;;;5034171;28;20017;-84
2022/01/06 01:29:15;;;;;;;6.95;2.78;;;3.90;99.90;;;;;;5016112;28;20485;-83
2022/01/06 01:31:47;;;;;;;6.28;2.65;;;3.80;99.90;;;;;;5016268;28;20034;-84
2022/01/06 01:34:16;;;;;;;9.05;2.40;;;3.80;99.90;;;;;;5033971;28;20104;-84
2022/01/06 01:36:44;;;;;;;10.38;2.60;;;3.90;99.90;;;;;;5016132;28;20025;-84
2022/01/06 01:39:10;;;;;;;12.60;2.92;;;3.90;99.90;;;;;;5016206;28;20121;-83
2022/01/06 01:41:36;;;;;;;8.60;2.45;;;3.90;99.90;;;;;;5016022;28;20090;-84
2022/01/06 01:44:05;;;;;;;11.25;2.50;;;3.90;99.90;;;;;;5015971;28;20064;-84
2022/01/06 01:46:41;;;;;;;8.82;2.35;;;3.90;99.90;;;;;;5016016;28;20044;-84
2022/01/06 01:51:39;;;;;;;9.25;2.55;;;4.10;99.90;;;;;;5033363;28;20068;-84
2022/01/06 01:54:05;;;;;;;5.78;2.40;;;4.10;99.90;;;;;;5015900;28;20374;-84
2022/01/06 01:56:31;;;;;;;7.30;2.20;;;4.10;99.90;;;;;;5015876;28;20084;-84
2022/01/06 01:58:57;;;;;;;5.03;2.03;;;4.00;99.90;;;;;;5015837;28;20056;-84
2022/01/06 02:01:23;;;;;;;10.00;2.70;;;4.00;99.90;;;;;;5033457;28;20029;-84
2022/01/06 02:03:48;;;;;;;9.95;2.75;;;4.10;99.90;;;;;;5015640;28;20051;-84
2022/01/06 02:06:14;;;;;;;6.70;2.20;;;4.10;99.90;;;;;;5012197;28;20042;-83
2022/01/06 02:08:40;;;;;;;5.72;2.45;;;4.00;99.90;;;;;;5014154;28;20425;-84
2022/01/06 02:11:06;;;;;;;7.88;2.10;;;4.00;99.90;;;;;;5013695;28;20030;-84
2022/01/06 02:13:32;;;;;;;5.53;2.10;;;4.00;99.90;;;;;;5013606;28;20105;-84
2022/01/06 02:16:00;;;;;;;6.40;2.08;;;4.00;99.90;;;;;;5012250;28;20021;-84
2022/01/06 02:18:28;;;;;;;4.97;1.90;;;4.10;99.90;;;;;;5013682;28;20456;-84
2022/01/06 02:20:54;;;;;;;6.50;1.95;;;4.10;99.90;;;;;;5013538;28;20101;-84
2022/01/06 02:23:21;;;;;;;7.47;2.20;;;4.00;99.90;;;;;;5012194;28;20312;-84
2022/01/06 02:25:51;;;;;;;9.20;2.13;;;3.90;99.90;;;;;;5012037;28;20022;-84
2022/01/06 02:28:18;;;;;;;6.90;2.05;;;3.90;99.90;;;;;;5012096;28;20030;-84
2022/01/06 02:30:49;;;;;;;7.13;2.33;;;4.00;99.90;;;;;;5012104;28;20018;-84
2022/01/06 02:33:15;;;;;;;7.85;2.30;;;4.00;99.90;;;;;;5012135;28;20026;-84
2022/01/06 02:35:41;;;;;;;6.63;2.35;;;4.00;99.90;;;;;;5012077;28;20029;-84
2022/01/06 02:38:09;;;;;;;6.95;2.20;;;3.80;99.90;;;;;;5012017;28;20038;-84
2022/01/06 02:40:35;;;;;;;6.53;2.58;;;3.90;99.90;;;;;;5013379;28;20026;-84
2022/01/06 02:43:02;;;;;;;6.93;2.00;;;3.90;99.90;;;;;;5011903;28;20125;-84
2022/01/06 02:45:30;;;;;;;9.35;2.15;;;3.90;99.90;;;;;;5013152;28;20018;-84
2022/01/06 02:47:57;;;;;;;9.60;2.38;;;3.90;99.90;;;;;;5011952;28;20030;-84
2022/01/06 02:50:25;;;;;;;7.07;1.92;;;4.10;99.90;;;;;;5011920;28;20560;-84
2022/01/06 02:52:51;;;;;;;6.57;1.83;;;4.00;99.90;;;;;;5013170;28;20385;-84
2022/01/06 02:55:17;;;;;;;4.80;2.15;;;4.00;99.90;;;;;;5011993;28;20370;-84
2022/01/06 02:57:44;;;;;;;7.40;2.20;;;3.90;99.90;;;;;;5012280;28;20390;-84
2022/01/06 03:00:12;;;;;;;11.23;2.15;;;3.90;99.90;;;;;;5013164;28;20037;-84
2022/01/06 03:02:41;;;;;;;4.47;2.13;;;3.80;99.90;;;;;;5011981;28;20033;-84
2022/01/06 03:05:07;;;;;;;6.97;1.98;;;3.90;99.90;;;;;;5015555;28;20033;-84
2022/01/06 03:07:33;;;;;;;7.53;2.08;;;3.90;99.90;;;;;;5015290;28;20042;-84
2022/01/06 03:10:02;;;;;;;6.25;2.03;;;3.90;99.90;;;;;;5016766;28;20032;-84
2022/01/06 03:12:33;;;;;;;6.80;2.05;;;4.10;99.90;;;;;;5015544;28;20055;-84
2022/01/06 03:15:00;;;;;;;4.35;1.90;;;4.00;99.90;;;;;;5015552;28;20034;-84
2022/01/06 03:17:26;;;;;;;7.47;1.95;;;3.90;99.90;;;;;;5016684;28;20037;-84
2022/01/06 03:19:51;;;;;;;6.97;1.98;;;3.90;99.90;;;;;;5015284;28;20034;-84
2022/01/06 03:22:17;;;;;;;5.10;2.13;;;3.90;99.90;;;;;;5015361;28;20375;-84
2022/01/06 03:24:43;;;;;;;7.30;2.38;;;3.90;99.90;;;;;;5015275;28;20022;-84
2022/01/06 03:27:09;;;;;;;8.68;1.88;;;3.90;99.90;;;;;;5016607;28;20045;-84
2022/01/06 03:29:35;;;;;;;7.32;2.00;;;4.00;99.90;;;;;;5016573;28;20389;-84
2022/01/06 03:32:01;;;;;;;6.28;2.65;;;3.90;99.90;;;;;;5015174;28;20018;-84
2022/01/06 03:34:31;;;;;;;3.55;1.75;;;3.90;99.90;;;;;;5015098;28;20092;-84
2022/01/06 03:37:02;;;;;;;3.50;1.60;;;3.90;99.90;;;;;;5015150;28;20448;-84
2022/01/06 03:39:28;;;;;;;6.47;2.00;;;3.90;99.90;;;;;;5015170;28;20084;-84
2022/01/06 03:41:54;;;;;;;6.47;2.00;;;4.00;99.90;;;;;;5016210;28;20029;-84
2022/01/06 03:44:20;;;;;;;4.82;1.80;;;4.00;99.90;;;;;;5014974;28;20034;-84
2022/01/06 03:46:45;;;;;;;5.05;1.70;;;4.10;99.90;;;;;;5016241;28;20375;-84
2022/01/06 03:49:11;;;;;;;5.32;1.55;;;4.10;99.90;;;;;;5014977;28;20549;-84
2022/01/06 03:51:37;;;;;;;3.78;1.42;;;4.10;99.90;;;;;;5016020;28;20026;-84
2022/01/06 03:54:03;;;;;;;6.80;2.10;;;4.10;99.90;;;;;;5014684;28;20080;-84
2022/01/06 03:56:29;;;;;;;5.15;1.73;;;4.10;99.90;;;;;;5015616;28;20070;-84
2022/01/06 03:58:55;;;;;;;3.72;1.65;;;4.10;99.90;;;;;;5014727;28;20129;-84
2022/01/06 04:01:21;;;;;;;4.45;1.80;;;4.10;99.90;;;;;;5014804;28;20081;-84
2022/01/06 04:03:47;;;;;;;5.82;1.77;;;4.20;99.90;;;;;;5014635;28;20481;-84
2022/01/06 04:06:14;;;;;;;4.50;1.58;;;4.30;99.90;;;;;;5017556;28;20014;-84
2022/01/06 04:08:40;;;;;;;4.53;1.35;;;4.20;99.90;;;;;;5017734;28;20021;-84
2022/01/06 04:11:06;;;;;;;4.28;1.33;;;4.20;99.90;;;;;;5017743;28;20397;-84
2022/01/06 04:13:33;;;;;;;5.68;1.65;;;4.00;99.90;;;;;;5017544;28;20021;-84
2022/01/06 04:16:01;;;;;;;7.07;1.70;;;4.00;99.90;;;;;;5017578;28;20032;-84
2022/01/06 04:18:27;;;;;;;5.03;1.77;;;4.00;99.90;;;;;;5017501;28;20458;-84
2022/01/06 04:20:53;;;;;;;5.22;1.88;;;4.00;99.90;;;;;;5035275;28;20048;-84
2022/01/06 04:23:19;;;;;;;4.95;1.88;;;3.90;99.90;;;;;;5017383;28;20022;-84
2022/01/06 04:25:44;;;;;;;4.70;1.63;;;3.90;99.90;;;;;;5017312;28;20022;-85
2022/01/06 04:28:10;;;;;;;4.13;1.65;;;4.00;99.90;;;;;;5017257;28;20068;-85
2022/01/06 04:30:36;;;;;;;6.22;1.92;;;4.00;99.90;;;;;;5017275;28;20068;-84
2022/01/06 04:33:02;;;;;;;3.72;1.85;;;4.00;99.90;;;;;;5017224;28;20543;-84
2022/01/06 04:35:27;;;;;;;3.97;1.30;;;4.00;99.90;;;;;;5017152;28;20083;-85
2022/01/06 04:37:53;;;;;;;5.90;1.90;;;3.90;99.90;;;;;;5017108;28;20025;-85
2022/01/06 04:40:19;;;;;;;3.95;1.40;;;4.00;99.90;;;;;;5017137;28;20167;-84
2022/01/06 04:42:44;;;;;;;6.85;1.80;;;4.00;99.90;;;;;;5017099;28;20029;-85
2022/01/06 04:45:10;;;;;;;46.08;13.30;;;3.90;99.90;;;;;;5034759;28;20050;-85
2022/01/06 04:47:36;;;;;;;7.07;2.38;;;3.90;99.90;;;;;;5016977;28;20025;-85
2022/01/06 04:50:03;;;;;;;7.03;2.20;;;3.90;99.90;;;;;;5017054;28;20022;-85
2022/01/06 04:52:29;;;;;;;4.93;2.00;;;3.90;99.90;;;;;;5016975;28;20080;-85
2022/01/06 04:54:54;;;;;;;5.30;2.22;;;3.90;99.90;;;;;;5034714;28;20061;-84
2022/01/06 04:57:20;;;;;;;5.10;2.17;;;3.90;99.90;;;;;;5016837;28;20079;-85
2022/01/06 04:59:46;;;;;;;2.13;1.50;;;3.90;99.90;;;;;;5016876;28;20507;-84
2022/01/06 05:02:11;;;;;;;6.22;2.17;;;3.70;99.90;;;;;;5034504;28;20057;-85
2022/01/06 05:04:37;;;;;;;4.93;1.95;;;3.60;99.90;;;;;;5016667;28;20032;-85
2022/01/06 05:07:03;;;;;;;4.70;1.85;;;3.70;99.90;;;;;;5016585;28;20048;-85
2022/01/06 05:09:29;;;;;;;5.75;1.80;;;3.70;99.90;;;;;;5016796;28;20032;-85
2022/01/06 05:11:55;;;;;;;3.33;1.80;;;3.80;99.90;;;;;;5016500;28;20467;-85
2022/01/06 05:14:21;;;;;;;6.40;2.08;;;3.80;99.90;;;;;;5016359;28;20067;-85
2022/01/06 05:16:47;;;;;;;3.45;1.88;;;3.90;99.90;;;;;;5016444;28;20033;-85
2022/01/06 05:19:12;;;;;;;5.00;2.40;;;3.80;99.90;;;;;;5016476;28;20443;-85
2022/01/06 05:21:38;;;;;;;5.43;2.00;;;3.90;99.90;;;;;;5016359;28;20476;-85
2022/01/06 05:24:11;;;;;;;4.38;2.80;;;3.80;99.90;;;;;;5016300;28;20130;-84
2022/01/06 05:26:38;;;;;;;6.55;2.88;;;3.70;99.90;;;;;;5015873;28;20117;-84
2022/01/06 05:29:07;;;;;;;4.68;2.20;;;3.70;99.90;;;;;;5016151;28;20022;-84
2022/01/06 05:31:32;;;;;;;4.15;2.20;;;3.70;99.90;;;;;;5016105;28;20374;-84
2022/01/06 05:33:58;;;;;;;3.65;1.70;;;3.70;99.90;;;;;;5016087;28;20113;-85
2022/01/06 05:36:24;;;;;;;4.63;2.00;;;3.50;99.90;;;;;;5016353;28;20029;-84
2022/01/06 05:38:49;;;;;;;5.20;2.15;;;3.30;99.90;;;;;;5016169;28;20108;-84
2022/01/06 05:41:15;;;;;;;4.57;2.20;;;3.30;99.90;;;;;;5015999;28;20031;-84
2022/01/06 05:43:41;;;;;;;4.18;2.20;;;3.40;99.90;;;;;;5015995;28;20032;-84
2022/01/06 05:46:06;;;;;;;4.28;2.25;;;3.40;99.90;;;;;;5016045;28;20022;-84
2022/01/06 05:48:32;;;;;;;5.15;2.30;;;3.50;99.90;;;;;;5015997;28;20079;-85
2022/01/06 05:50:58;;;;;;;4.22;2.65;;;3.60;99.90;;;;;;5015941;28;20109;-85
2022/01/06 05:53:24;;;;;;;6.47;2.58;;;3.50;99.90;;;;;;5015841;28;20030;-85
2022/01/06 05:55:50;;;;;;;4.78;2.45;;;3.30;99.90;;;;;;5016117;28;20030;-84
2022/01/06 05:58:16;;;;;;;9.55;4.55;;;3.40;99.90;;;;;;5015773;28;20025;-85
2022/01/06 06:00:42;;;;;;;7.97;2.97;;;3.20;99.90;;;;;;5015589;28;20026;-85
2022/01/06 06:03:08;;;;;;;4.45;2.65;;;3.40;99.90;;;;;;5015659;28;20026;-85
2022/01/06 06:05:34;;;;;;;4.63;2.47;;;3.40;99.90;;;;;;5015530;28;20041;-86
2022/01/06 06:08:00;;;;;;;4.53;2.38;;;3.30;99.90;;;;;;5015560;28;20076;-85
2022/01/06 06:10:26;;;;;;;3.38;2.08;;;3.30;99.90;;;;;;5015610;28;20052;-85
2022/01/06 06:12:53;;;;;;;4.28;2.15;;;3.40;99.90;;;;;;5015631;28;20032;-85
2022/01/06 06:15:20;;;;;;;2.67;1.83;;;3.50;99.90;;;;;;5015578;28;20087;-85
2022/01/06 06:17:46;;;;;;;4.82;2.10;;;3.40;99.90;;;;;;5015580;28;20401;-85
2022/01/06 06:20:12;;;;;;;8.02;2.42;;;3.40;99.90;;;;;;5015526;28;20026;-85
2022/01/06 06:22:38;;;;;;;3.60;1.98;;;3.30;99.90;;;;;;5015512;28;20033;-84
2022/01/06 06:25:05;;;;;;;5.30;2.05;;;3.20;99.90;;;;;;5033159;28;20030;-84
2022/01/06 06:27:30;;;;;;;2.78;1.75;;;3.10;99.90;;;;;;5033272;28;20388;-85
2022/01/06 06:29:56;;;;;;;2.55;1.60;;;3.30;99.90;;;;;;5015431;28;20029;-85
2022/01/06 06:32:22;;;;;;;3.95;2.00;;;3.10;99.90;;;;;;5015400;28;20160;-85
2022/01/06 06:34:48;;;;;;;4.93;2.08;;;3.20;99.90;;;;;;5015191;28;20603;-84
2022/01/06 06:37:13;;;;;;;2.53;1.95;;;3.40;99.90;;;;;;5015391;28;20034;-85
2022/01/06 06:39:39;;;;;;;4.07;1.90;;;3.40;99.90;;;;;;5018963;28;20029;-85
2022/01/06 06:42:05;;;;;;;2.95;1.67;;;3.40;99.90;;;;;;5037236;28;20026;-85
2022/01/06 06:44:31;;;;;;;3.75;1.90;;;3.50;99.90;;;;;;5019325;28;20028;-85
2022/01/06 06:46:56;;;;;;;2.92;1.42;;;3.60;99.90;;;;;;5019369;28;20029;-85
2022/01/06 06:49:22;;;;;;;2.38;1.50;;;3.80;99.90;;;;;;5019280;28;20049;-84
2022/01/06 06:51:48;;;;;;;2.38;1.50;;;3.70;99.90;;;;;;5019321;28;20108;-85
2022/01/06 06:54:14;;;;;;;4.20;1.80;;;3.50;99.90;;;;;;5019269;28;20459;-85
2022/01/06 06:56:41;;;;;;;4.35;1.30;;;3.50;99.90;;;;;;5019271;28;20030;-85
2022/01/06 06:59:07;;;;;;;2.65;1.60;;;3.40;99.90;;;;;;5019178;28;20488;-84
2022/01/06 07:01:33;;;;;;;3.78;2.00;;;3.60;99.90;;;;;;5019057;28;20040;-84
2022/01/06 07:03:58;;;;;;;2.30;1.77;;;3.40;99.90;;;;;;5018845;28;20065;-84
2022/01/06 07:06:24;;;;;;;3.95;1.92;;;3.30;99.90;;;;;;5018578;28;20044;-84
2022/01/06 07:08:50;;;;;;;3.58;2.00;;;3.20;99.90;;;;;;5019010;28;20024;-84
2022/01/06 07:11:16;;;;;;;5.60;1.95;;;3.10;99.90;;;;;;5036691;28;20021;-84
2022/01/06 07:13:42;;;;;;;3.53;2.03;;;3.30;99.90;;;;;;5018826;28;20021;-84
2022/01/06 07:16:07;;;;;;;4.20;1.73;;;3.10;99.90;;;;;;5018836;28;20033;-84
2022/01/06 07:18:33;;;;;;;5.10;1.98;;;3.10;99.90;;;;;;5018648;28;20159;-84
2022/01/06 07:20:59;;;;;;;4.25;2.13;;;3.00;99.90;;;;;;5036393;28;20053;-84
2022/01/06 07:23:25;;;;;;;2.20;1.70;;;3.10;99.90;;;;;;5036685;28;20017;-84
2022/01/06 07:25:50;;;;;;;2.63;1.67;;;3.30;99.90;;;;;;5018546;28;20034;-84
2022/01/06 07:28:16;;;;;;;4.53;2.00;;;3.50;99.90;;;;;;5036372;28;20111;-84
2022/01/06 07:30:42;;;;;;;6.60;2.50;;;3.40;99.90;;;;;;5036196;28;20028;-84
2022/01/06 07:33:07;;;;;;;3.53;2.20;;;3.20;99.90;;;;;;5018318;28;20022;-84
2022/01/06 07:35:33;;;;;;;4.10;2.40;;;3.20;99.90;;;;;;5036403;28;20040;-84
2022/01/06 07:37:59;;;;;;;6.28;2.28;;;3.30;99.90;;;;;;5018223;28;20419;-84
2022/01/06 07:40:25;;;;;;;4.55;1.92;;;3.10;99.90;;;;;;5018322;28;20036;-84
2022/01/06 07:42:51;;;;;;;5.97;2.15;;;3.10;99.90;;;;;;5018206;28;20030;-84
2022/01/06 07:45:18;;;;;;;5.68;1.98;;;3.20;99.90;;;;;;5018336;28;20083;-84
2022/01/06 07:47:58;;;;;;;7.93;2.20;;;3.10;99.90;;;;;;5018291;28;20112;-84
2022/01/06 07:50:30;;;;;;;4.22;2.03;;;3.10;99.90;;;;;;5035318;28;20466;-84
2022/01/06 07:52:56;;;;;;;4.45;1.90;;;3.00;99.90;;;;;;5018923;28;20052;-84
2022/01/06 07:55:22;;;;;;;5.32;2.10;;;3.20;99.90;;;;;;5017991;28;20033;-84
2022/01/06 07:57:47;;;;;;;14.63;6.63;;;3.20;99.90;;;;;;5035687;28;20511;-84
2022/01/06 08:00:14;;;;;;;5.60;2.25;;;3.30;99.90;;;;;;5017959;28;20075;-84
2022/01/06 08:02:39;;;;;;;6.00;2.13;;;3.40;99.90;;;;;;5018038;28;20470;-84
2022/01/06 08:05:09;;;;;;;14.30;5.07;;;3.70;99.90;;;;;;5035767;28;20033;-84
2022/01/06 08:07:35;;;;;;;7.20;2.58;;;3.60;99.90;;;;;;5017610;28;20049;-84
2022/01/06 08:10:01;;;;;;;4.78;2.92;;;3.70;99.90;;;;;;5017929;28;20473;-84
2022/01/06 08:12:27;;;;;;;6.07;2.78;;;3.70;99.90;;;;;;5035452;28;20032;-84
2022/01/06 08:14:52;;;;;;;4.72;2.72;;;3.80;99.90;;;;;;5017557;28;20467;-84
2022/01/06 08:17:18;;;;;;;6.28;2.90;;;3.90;99.90;;;;;;5017627;28;20025;-84
2022/01/06 08:19:44;;;;;;;7.75;2.75;;;3.90;99.90;;;;;;5035343;28;20455;-84
2022/01/06 08:22:10;;;;;;;20.70;8.10;;;3.90;99.90;;;;;;5035268;28;20370;-84
2022/01/06 08:24:36;;;;;;;12.77;5.03;;;3.90;99.90;;;;;;5017338;28;20029;-84
2022/01/06 08:27:08;;;;;;;14.05;8.02;;;4.00;99.90;;;;;;5017415;28;20532;-84
2022/01/06 08:29:34;;;;;;;15.52;8.38;;;4.20;99.90;;;;;;5035464;28;20025;-84
2022/01/06 08:32:00;;;;;;;10.10;6.03;;;4.40;99.90;;;;;;5017349;28;20440;-84
2022/01/06 08:34:26;;;;;;;12.10;4.40;;;4.50;99.90;;;;;;5035087;28;20033;-84
2022/01/06 08:36:53;;;;;;;9.05;4.03;;;4.60;99.90;;;;;;5017532;28;20029;-84
2022/01/06 08:39:20;;;;;;;7.75;3.35;;;4.50;99.90;;;;;;5034894;28;20029;-84
2022/01/06 08:41:46;;;;;;;7.13;3.55;;;4.40;99.90;;;;;;5017903;28;20031;-84
2022/01/06 08:44:12;;;;;;;10.40;4.38;;;4.20;99.90;;;;;;5017107;28;20026;-84
2022/01/06 08:46:38;;;;;;;13.02;5.78;;;4.30;99.90;;;;;;5016961;28;20079;-84
2022/01/06 08:49:06;;;;;;;7.80;4.68;;;4.20;99.90;;;;;;5016971;28;20033;-84
2022/01/06 08:51:32;;;;;;;5.70;4.05;;;4.30;99.90;;;;;;5016955;28;20017;-84
2022/01/06 08:53:58;;;;;;;9.88;4.45;;;4.20;99.90;;;;;;5016778;28;20063;-84
2022/01/06 08:56:24;;;;;;;7.95;3.20;;;4.10;99.90;;;;;;5017062;28;20036;-84
2022/01/06 08:58:50;;;;;;;10.50;4.10;;;4.10;99.90;;;;;;5016763;28;20018;-84
2022/01/06 09:01:16;;;;;;;6.35;3.60;;;4.30;99.90;;;;;;5016198;28;20593;-84
2022/01/06 09:03:42;;;;;;;6.97;3.42;;;4.70;99.90;;;;;;5016638;28;20108;-84
2022/01/06 09:06:07;;;;;;;9.52;3.33;;;5.10;99.90;;;;;;5016231;28;20430;-84
2022/01/06 09:08:33;;;;;;;5.72;3.10;;;5.40;99.90;;;;;;5016610;28;20112;-84
2022/01/06 09:10:59;;;;;;;13.23;3.67;;;5.50;99.90;;;;;;5016605;28;20209;-84
2022/01/06 09:13:25;;;;;;;8.98;3.38;;;5.60;99.90;;;;;;5016605;28;20022;-84
2022/01/06 09:15:50;;;;;;;8.20;3.38;;;5.90;99.90;;;;;;5016558;28;20497;-84
2022/01/06 09:18:16;;;;;;;9.80;3.47;;;5.70;99.90;;;;;;5016415;28;20402;-84
2022/01/06 09:20:42;;;;;;;9.00;3.33;;;5.50;99.90;;;;;;5016404;28;20021;-83
2022/01/06 09:23:07;;;;;;;9.93;2.85;;;5.30;99.90;;;;;;5016325;28;20025;-84
2022/01/06 09:25:33;;;;;;;7.85;3.50;;;5.20;99.90;;;;;;5034205;28;20029;-84
2022/01/06 09:27:59;;;;;;;14.77;4.30;;;5.10;99.90;;;;;;5016426;28;20030;-84
2022/01/06 09:30:25;;;;;;;9.43;3.33;;;5.00;99.90;;;;;;5016480;28;20017;-84
2022/01/06 09:32:53;;;;;;;12.80;3.95;;;5.00;99.90;;;;;;5034107;28;20397;-84
2022/01/06 09:35:20;;;;;;;9.95;3.70;;;4.90;99.90;;;;;;5016352;28;20033;-84
2022/01/06 09:37:46;;;;;;;17.00;5.15;;;4.90;99.90;;;;;;5016087;28;20124;-84
2022/01/06 09:40:12;;;;;;;11.50;4.40;;;5.00;99.90;;;;;;5015956;28;20115;-84
2022/01/06 09:42:41;;;;;;;16.27;6.88;;;5.20;99.90;;;;;;5033646;28;20036;-85
2022/01/06 09:45:09;;;;;;;16.65;6.80;;;5.20;99.90;;;;;;5015930;28;20038;-85
2022/01/06 09:47:36;;;;;;;34.42;12.82;;;5.50;99.90;;;;;;5015886;28;20026;-82
2022/01/06 09:50:02;;;;;;;8.35;3.45;;;5.90;99.90;;;;;;5015827;28;20021;-83
2022/01/06 09:52:28;;;;;;;8.07;2.75;;;6.10;99.90;;;;;;5015718;28;20028;-82
2022/01/06 09:54:53;;;;;;;6.55;3.00;;;6.40;99.90;;;;;;5015741;28;20389;-82
2022/01/06 09:57:19;;;;;;;9.85;2.97;;;6.70;99.90;;;;;;5015648;28;20025;-82
2022/01/06 09:59:45;;;;;;;10.38;3.10;;;7.10;99.90;;;;;;5015598;28;20028;-82
2022/01/06 10:02:16;;;;;;;7.07;2.67;;;7.30;99.90;;;;;;5015634;28;20095;-82
2022/01/06 10:04:56;;;;;;;7.88;2.67;;;6.90;99.90;;;;;;5015528;28;20036;-81
2022/01/06 10:07:22;;;;;;;8.57;2.85;;;6.60;99.90;;;;;;5033233;28;20511;-82
2022/01/06 10:09:50;;;;;;;10.13;3.20;;;6.40;99.90;;;;;;5015435;28;20022;-83
2022/01/06 10:12:16;;;;;;;11.38;3.53;;;6.50;99.90;;;;;;5015329;28;20022;-83
2022/01/06 10:14:46;;;;;;;8.05;3.28;;;6.30;99.90;;;;;;5015439;28;20026;-82
2022/01/06 10:17:28;;;;;;;11.95;3.00;;;6.10;99.90;;;;;;5033124;28;20034;-83
2022/01/06 10:19:54;;;;;;;8.57;3.38;;;6.50;99.90;;;;;;5015365;28;20036;-82
2022/01/06 10:22:21;;;;;;;8.15;3.00;;;6.70;99.90;;;;;;5033328;28;20469;-82
2022/01/06 10:24:50;;;;;;;11.85;2.92;;;7.10;99.90;;;;;;5015214;28;20029;-82
2022/01/06 10:27:18;;;;;;;10.68;3.28;;;7.10;99.90;;;;;;5015283;28;20022;-83
2022/01/06 10:29:46;;;;;;;9.10;2.60;;;6.90;99.90;;;;;;5015293;28;20026;-84
2022/01/06 10:32:14;;;;;;;5.43;2.25;;;6.40;99.90;;;;;;5015383;28;20029;-82
2022/01/06 10:34:42;;;;;;;11.30;2.42;;;6.40;99.90;;;;;;5032906;28;20030;-83
2022/01/06 10:37:19;;;;;;;10.00;2.60;;;6.40;99.90;;;;;;5032902;28;20021;-83
2022/01/06 10:39:47;;;;;;;9.68;3.65;;;6.20;99.90;;;;;;5015193;28;20033;-82
2022/01/06 10:42:13;;;;;;;6.50;2.13;;;6.10;99.90;;;;;;5032868;28;20022;-82
2022/01/06 10:44:50;;;;;;;10.93;3.22;;;6.00;99.90;;;;;;5032793;28;20057;-83
2022/01/06 10:47:31;;;;;;;8.10;2.53;;;5.80;99.90;;;;;;5015184;28;20028;-83
2022/01/06 10:50:11;;;;;;;11.13;2.30;;;5.70;99.90;;;;;;5033136;28;20025;-83
2022/01/06 10:52:39;;;;;;;7.43;2.20;;;5.60;99.90;;;;;;5015023;28;20025;-83
2022/01/06 10:55:15;;;;;;;18.58;3.83;;;5.70;99.90;;;;;;5015104;28;20029;-84
2022/01/06 10:58:01;;;;;;;18.20;3.10;;;5.80;99.90;;;;;;5032768;28;20038;-82
2022/01/06 11:00:39;;;;;;;14.25;2.85;;;5.70;99.90;;;;;;5015051;28;20029;-83
2022/01/06 11:03:19;;;;;;;12.63;2.58;;;5.60;99.90;;;;;;5015064;28;20025;-82
2022/01/06 11:05:54;;;;;;;12.23;2.67;;;5.60;99.90;;;;;;5032606;28;20021;-82
2022/01/06 11:08:24;;;;;;;12.98;2.67;;;5.30;99.90;;;;;;5014824;28;20046;-83
2022/01/06 11:11:13;;;;;;;7.50;2.20;;;5.40;99.90;;;;;;5014873;28;20026;-85
2022/01/06 11:13:46;;;;;;;16.60;2.72;;;5.40;99.90;;;;;;5032376;28;20025;-84
2022/01/06 11:16:14;;;;;;;11.93;2.88;;;5.40;99.90;;;;;;5014942;28;20425;-84
2022/01/06 11:18:58;;;;;;;10.13;3.13;;;5.50;99.90;;;;;;5014842;28;20121;-82
2022/01/06 11:21:34;;;;;;;9.52;2.80;;;5.40;99.90;;;;;;4998459;28;20033;-82
2022/01/06 11:24:23;;;;;;;10.48;2.55;;;5.40;99.90;;;;;;5015409;28;20032;-82
2022/01/06 11:27:03;;;;;;;8.93;2.25;;;5.30;99.90;;;;;;5018494;28;20029;-82
2022/01/06 11:29:36;;;;;;;11.55;2.95;;;5.20;99.90;;;;;;5036517;28;20107;-83
2022/01/06 11:32:05;;;;;;;9.18;2.50;;;4.90;99.90;;;;;;5018357;28;20029;-82
2022/01/06 11:34:40;;;;;;;6.80;2.10;;;4.90;99.90;;;;;;5018403;28;20026;-83
2022/01/06 11:37:11;;;;;;;10.05;2.28;;;4.80;99.90;;;;;;5018316;28;20025;-83
2022/01/06 11:39:37;;;;;;;10.90;2.67;;;4.80;99.90;;;;;;5018180;28;20057;-83
2022/01/06 11:42:20;;;;;;;17.48;2.53;;;4.80;99.90;;;;;;5018845;28;20099;-82
2022/01/06 11:44:54;;;;;;;13.65;3.22;;;4.70;99.90;;;;;;5018742;28;20504;-83
2022/01/06 11:47:30;;;;;;;10.25;2.47;;;4.80;99.90;;;;;;5018530;28;20026;-83
2022/01/06 11:50:05;;;;;;;18.15;2.78;;;4.90;99.90;;;;;;5018612;28;20176;-83
2022/01/06 11:52:31;;;;;;;13.15;3.15;;;4.90;99.90;;;;;;5036257;28;20026;-83
2022/01/06 11:54:57;;;;;;;14.77;2.80;;;5.00;99.90;;;;;;5018707;28;20048;-82
2022/01/06 11:57:31;;;;;;;10.45;2.30;;;5.00;99.90;;;;;;5036133;28;20504;-83
2022/01/06 12:00:20;;;;;;;12.20;2.67;;;4.90;99.90;;;;;;5018427;28;20489;-82
2022/01/06 12:03:01;;;;;;;12.38;2.83;;;4.90;99.90;;;;;;5018378;28;20025;-83
2022/01/06 12:05:39;;;;;;;15.35;4.20;;;5.00;99.90;;;;;;5018101;28;20041;-83
2022/01/06 12:08:04;;;;;;;12.77;2.33;;;4.90;99.90;;;;;;5018229;28;20408;-82
2022/01/06 12:10:42;;;;;;;12.20;3.20;;;5.00;99.90;;;;;;5018183;28;20030;-82
2022/01/06 12:13:08;;;;;;;12.10;2.60;;;5.00;99.90;;;;;;5018180;28;20477;-83
2022/01/06 12:15:49;;;;;;;10.88;2.50;;;4.90;99.90;;;;;;5035751;28;20029;-83
2022/01/06 12:18:20;;;;;;;8.50;2.20;;;4.90;99.90;;;;;;5018234;28;20037;-82
2022/01/06 12:20:48;;;;;;;12.50;3.47;;;5.00;99.90;;;;;;5018026;28;20115;-83
2022/01/06 12:23:14;;;;;;;10.48;3.08;;;5.10;99.90;;;;;;5018072;28;20541;-83
2022/01/06 12:25:41;;;;;;;10.40;3.10;;;5.20;99.90;;;;;;5017805;28;20036;-82
2022/01/06 12:28:10;;;;;;;9.77;3.08;;;5.20;99.90;;;;;;5017973;28;20382;-82
2022/01/06 12:30:39;;;;;;;13.50;3.28;;;5.20;99.90;;;;;;5017612;28;20067;-83
2022/01/06 12:33:07;;;;;;;17.92;3.03;;;5.50;99.90;;;;;;5017552;28;20021;-83
2022/01/06 12:35:43;;;;;;;14.50;2.78;;;5.70;99.90;;;;;;5035525;28;20021;-82
2022/01/06 12:38:11;;;;;;;9.70;2.60;;;5.70;99.90;;;;;;5017516;28;20477;-82
2022/01/06 12:40:42;;;;;;;13.27;2.45;;;5.90;99.90;;;;;;5017609;28;20036;-82
2022/01/06 12:43:21;;;;;;;8.02;2.10;;;6.30;99.90;;;;;;5017355;28;20112;-83
2022/01/06 12:46:00;;;;;;;7.65;1.88;;;8.20;99.90;;;;;;5017866;28;20108;-83
2022/01/06 12:48:32;;;;;;;11.20;2.20;;;9.30;99.90;;;;;;5017443;28;20249;-83
2022/01/06 12:50:58;;;;;;;9.10;1.70;;;10.60;99.90;;;;;;5034980;28;20036;-83
2022/01/06 12:53:29;;;;;;;9.10;1.98;;;11.80;99.90;;;;;;5017050;28;20068;-83
2022/01/06 12:55:56;;;;;;;10.50;2.13;;;12.50;99.90;;;;;;5017332;28;20036;-83
2022/01/06 12:58:34;;;;;;;8.90;2.25;;;13.60;99.90;;;;;;5017071;28;20022;-83
2022/01/06 13:01:09;;;;;;;6.55;1.85;;;14.10;99.90;;;;;;5017020;28;20120;-83
2022/01/06 13:03:40;;;;;;;7.82;1.83;;;14.30;99.90;;;;;;5017107;28;20508;-84
2022/01/06 13:06:08;;;;;;;7.88;2.17;;;15.00;99.90;;;;;;5016463;28;20026;-83
2022/01/06 13:08:51;;;;;;;9.43;2.05;;;15.40;99.90;;;;;;5016955;28;20025;-84